首页
METAR-TAF:

METAR-TAF

机场 :

乌斯怀亚国际机场

乌斯怀亚, 阿根廷

纬度: 54-48S, 经度: 068-19W, 海拔: 16米

当前天气观测

该预报发布于33分钟前的04:00 UTC
风速5节,风向,在东北东南之间变化
温度 4°C
湿度 70%
气压 1000 hPa
能见度10公里或以上
1500米以下无云,无积雨云

METAR: SAWH 280400Z 10005KT 040V140 CAVOK 04/M01 Q1000

时间: 01:33 (04:33 UTC)

预报

该预报发布于5小时和33分钟前的23:00 UTC
预报有效从28日的 00点(UTC)到 28日的 24点(UTC)
风速5节,风向
能见度10公里或以上
1500米以下无云,无积雨云
成为
从 28日的 20点(UTC)到 28日的 22点(UTC)
能见度10公里或以上
散云层高于2500英尺
多云层高于6000英尺

TAF: SAWH 272300Z 2800/2824 36005KT CAVOK TX05/2818Z TNM04/2811Z BECMG 2820/2822 9999 SCT025 BKN060

超过4000个机场的气象观测和天气预报(METAR&TAF报告)。

可查询的气象台以黄色和红色小点在地图上表示。

将鼠标移到小点上方,可查看气象台名称。

然后点击查看天气观测和预报。

如需切换地图:点击带黑十字的绿色按钮放大地图;点击带横线的绿色按钮缩小地图;或者点击绿色箭头查看邻近地区的地图。


METAR-TAF: